sensor_id;sensor_type;location;lat;lon;timestamp;P1;durP1;ratioP1;P2;durP2;ratioP2
35444;SDS011;21562;49.476;6.086;2023-09-19T00:02:02;7.70;;;2.70;;
35444;SDS011;21562;49.476;6.086;2023-09-19T00:04:34;10.18;;;2.70;;
35444;SDS011;21562;49.476;6.086;2023-09-19T00:07:00;5.82;;;2.65;;
35444;SDS011;21562;49.476;6.086;2023-09-19T00:09:27;7.97;;;2.60;;
35444;SDS011;21562;49.476;6.086;2023-09-19T00:11:53;7.57;;;2.20;;
35444;SDS011;21562;49.476;6.086;2023-09-19T00:14:19;12.02;;;2.22;;
35444;SDS011;21562;49.476;6.086;2023-09-19T00:16:45;8.18;;;2.30;;
35444;SDS011;21562;49.476;6.086;2023-09-19T00:19:11;10.52;;;2.22;;
35444;SDS011;21562;49.476;6.086;2023-09-19T00:21:39;6.00;;;2.00;;
35444;SDS011;21562;49.476;6.086;2023-09-19T00:24:06;13.43;;;2.22;;
35444;SDS011;21562;49.476;6.086;2023-09-19T00:26:32;8.02;;;2.13;;
35444;SDS011;21562;49.476;6.086;2023-09-19T00:28:59;6.55;;;2.30;;
35444;SDS011;21562;49.476;6.086;2023-09-19T00:31:30;13.60;;;2.25;;
35444;SDS011;21562;49.476;6.086;2023-09-19T00:33:56;11.30;;;2.40;;
35444;SDS011;21562;49.476;6.086;2023-09-19T00:36:27;11.60;;;2.20;;
35444;SDS011;21562;49.476;6.086;2023-09-19T00:38:54;10.10;;;2.20;;
35444;SDS011;21562;49.476;6.086;2023-09-19T00:41:20;8.50;;;2.58;;
35444;SDS011;21562;49.476;6.086;2023-09-19T00:43:46;11.05;;;2.65;;
35444;SDS011;21562;49.476;6.086;2023-09-19T00:46:12;13.55;;;2.53;;
35444;SDS011;21562;49.476;6.086;2023-09-19T00:48:41;9.25;;;2.03;;
35444;SDS011;21562;49.476;6.086;2023-09-19T00:51:11;7.97;;;2.08;;
35444;SDS011;21562;49.476;6.086;2023-09-19T00:53:39;9.55;;;2.47;;
35444;SDS011;21562;49.476;6.086;2023-09-19T00:56:07;10.07;;;2.42;;
35444;SDS011;21562;49.476;6.086;2023-09-19T00:58:33;8.70;;;2.20;;
35444;SDS011;21562;49.476;6.086;2023-09-19T01:01:00;6.50;;;2.00;;
35444;SDS011;21562;49.476;6.086;2023-09-19T01:03:27;10.13;;;2.50;;
35444;SDS011;21562;49.476;6.086;2023-09-19T01:05:53;9.85;;;2.42;;
35444;SDS011;21562;49.476;6.086;2023-09-19T01:08:19;11.15;;;2.58;;
35444;SDS011;21562;49.476;6.086;2023-09-19T01:11:20;9.75;;;2.20;;
35444;SDS011;21562;49.476;6.086;2023-09-19T01:22:05;14.60;;;2.63;;
35444;SDS011;21562;49.476;6.086;2023-09-19T01:30:09;9.70;;;1.65;;
35444;SDS011;21562;49.476;6.086;2023-09-19T01:32:38;8.50;;;2.13;;
35444;SDS011;21562;49.476;6.086;2023-09-19T01:35:06;11.30;;;2.05;;
35444;SDS011;21562;49.476;6.086;2023-09-19T01:37:37;9.25;;;1.80;;
35444;SDS011;21562;49.476;6.086;2023-09-19T01:40:06;10.65;;;2.25;;
35444;SDS011;21562;49.476;6.086;2023-09-19T01:51:00;10.90;;;1.77;;
35444;SDS011;21562;49.476;6.086;2023-09-19T01:53:55;9.00;;;2.05;;
35444;SDS011;21562;49.476;6.086;2023-09-19T01:56:37;6.60;;;1.70;;
35444;SDS011;21562;49.476;6.086;2023-09-19T01:59:11;6.55;;;1.90;;
35444;SDS011;21562;49.476;6.086;2023-09-19T02:01:41;10.75;;;1.92;;
35444;SDS011;21562;49.476;6.086;2023-09-19T02:04:09;6.13;;;1.98;;
35444;SDS011;21562;49.476;6.086;2023-09-19T02:06:38;7.47;;;1.58;;
35444;SDS011;21562;49.476;6.086;2023-09-19T02:09:05;4.60;;;1.60;;
35444;SDS011;21562;49.476;6.086;2023-09-19T02:11:31;8.70;;;2.00;;
35444;SDS011;21562;49.476;6.086;2023-09-19T02:13:57;9.25;;;1.95;;
35444;SDS011;21562;49.476;6.086;2023-09-19T02:16:24;8.65;;;1.95;;
35444;SDS011;21562;49.476;6.086;2023-09-19T02:18:50;7.95;;;1.60;;
35444;SDS011;21562;49.476;6.086;2023-09-19T02:21:16;8.48;;;1.70;;
35444;SDS011;21562;49.476;6.086;2023-09-19T02:23:43;10.35;;;1.75;;
35444;SDS011;21562;49.476;6.086;2023-09-19T02:26:09;9.07;;;1.70;;
35444;SDS011;21562;49.476;6.086;2023-09-19T02:28:37;7.30;;;1.70;;
35444;SDS011;21562;49.476;6.086;2023-09-19T02:31:02;5.18;;;1.85;;
35444;SDS011;21562;49.476;6.086;2023-09-19T02:33:30;10.57;;;2.00;;
35444;SDS011;21562;49.476;6.086;2023-09-19T02:35:57;11.13;;;1.90;;
35444;SDS011;21562;49.476;6.086;2023-09-19T02:38:24;5.75;;;1.95;;
35444;SDS011;21562;49.476;6.086;2023-09-19T02:40:51;9.40;;;1.90;;
35444;SDS011;21562;49.476;6.086;2023-09-19T02:43:17;12.43;;;2.28;;
35444;SDS011;21562;49.476;6.086;2023-09-19T02:45:44;12.05;;;2.58;;
35444;SDS011;21562;49.476;6.086;2023-09-19T02:48:11;8.55;;;1.83;;
35444;SDS011;21562;49.476;6.086;2023-09-19T02:50:37;5.35;;;1.98;;
35444;SDS011;21562;49.476;6.086;2023-09-19T02:53:05;10.45;;;2.17;;
35444;SDS011;21562;49.476;6.086;2023-09-19T02:55:31;6.55;;;1.70;;
35444;SDS011;21562;49.476;6.086;2023-09-19T02:57:57;10.13;;;2.15;;
35444;SDS011;21562;49.476;6.086;2023-09-19T03:00:23;8.80;;;2.53;;
35444;SDS011;21562;49.476;6.086;2023-09-19T03:02:53;6.35;;;1.70;;
35444;SDS011;21562;49.476;6.086;2023-09-19T03:05:20;9.75;;;2.05;;
35444;SDS011;21562;49.476;6.086;2023-09-19T03:07:46;8.95;;;2.10;;
35444;SDS011;21562;49.476;6.086;2023-09-19T03:10:19;9.10;;;1.92;;
35444;SDS011;21562;49.476;6.086;2023-09-19T03:12:46;4.82;;;1.80;;
35444;SDS011;21562;49.476;6.086;2023-09-19T03:15:12;9.80;;;2.03;;
35444;SDS011;21562;49.476;6.086;2023-09-19T03:17:42;7.90;;;1.90;;
35444;SDS011;21562;49.476;6.086;2023-09-19T03:20:12;8.70;;;2.33;;
35444;SDS011;21562;49.476;6.086;2023-09-19T03:22:42;7.15;;;2.10;;
35444;SDS011;21562;49.476;6.086;2023-09-19T03:25:08;11.60;;;2.22;;
35444;SDS011;21562;49.476;6.086;2023-09-19T03:27:35;6.22;;;1.75;;
35444;SDS011;21562;49.476;6.086;2023-09-19T03:30:01;5.60;;;1.48;;
35444;SDS011;21562;49.476;6.086;2023-09-19T03:32:32;6.68;;;2.10;;
35444;SDS011;21562;49.476;6.086;2023-09-19T03:34:57;10.90;;;3.17;;
35444;SDS011;21562;49.476;6.086;2023-09-19T03:37:23;4.25;;;1.67;;
35444;SDS011;21562;49.476;6.086;2023-09-19T03:39:49;12.35;;;2.20;;
35444;SDS011;21562;49.476;6.086;2023-09-19T03:42:15;10.63;;;2.17;;
35444;SDS011;21562;49.476;6.086;2023-09-19T03:44:40;6.35;;;1.77;;
35444;SDS011;21562;49.476;6.086;2023-09-19T03:47:06;11.10;;;2.28;;
35444;SDS011;21562;49.476;6.086;2023-09-19T03:49:32;8.02;;;2.25;;
35444;SDS011;21562;49.476;6.086;2023-09-19T03:51:59;7.45;;;2.25;;
35444;SDS011;21562;49.476;6.086;2023-09-19T03:54:24;10.02;;;2.00;;
35444;SDS011;21562;49.476;6.086;2023-09-19T03:56:50;5.82;;;2.03;;
35444;SDS011;21562;49.476;6.086;2023-09-19T03:59:16;12.00;;;2.03;;
35444;SDS011;21562;49.476;6.086;2023-09-19T04:01:43;15.20;;;2.67;;
35444;SDS011;21562;49.476;6.086;2023-09-19T04:04:09;14.75;;;2.88;;
35444;SDS011;21562;49.476;6.086;2023-09-19T04:06:34;11.32;;;2.00;;
35444;SDS011;21562;49.476;6.086;2023-09-19T04:09:01;10.30;;;2.85;;
35444;SDS011;21562;49.476;6.086;2023-09-19T04:11:32;6.80;;;1.80;;
35444;SDS011;21562;49.476;6.086;2023-09-19T04:13:58;8.57;;;2.90;;
35444;SDS011;21562;49.476;6.086;2023-09-19T04:16:24;12.85;;;2.22;;
35444;SDS011;21562;49.476;6.086;2023-09-19T04:18:50;10.10;;;2.45;;
35444;SDS011;21562;49.476;6.086;2023-09-19T04:21:15;8.95;;;2.35;;
35444;SDS011;21562;49.476;6.086;2023-09-19T04:23:41;9.90;;;2.03;;
35444;SDS011;21562;49.476;6.086;2023-09-19T04:26:07;8.68;;;2.28;;
35444;SDS011;21562;49.476;6.086;2023-09-19T04:28:33;11.60;;;2.45;;
35444;SDS011;21562;49.476;6.086;2023-09-19T04:30:59;11.85;;;2.38;;
35444;SDS011;21562;49.476;6.086;2023-09-19T04:33:25;10.63;;;2.45;;
35444;SDS011;21562;49.476;6.086;2023-09-19T04:35:54;9.65;;;2.15;;
35444;SDS011;21562;49.476;6.086;2023-09-19T04:38:20;10.50;;;2.25;;
35444;SDS011;21562;49.476;6.086;2023-09-19T04:40:46;7.78;;;2.17;;
35444;SDS011;21562;49.476;6.086;2023-09-19T04:43:12;9.18;;;2.13;;
35444;SDS011;21562;49.476;6.086;2023-09-19T04:45:38;18.90;;;2.25;;
35444;SDS011;21562;49.476;6.086;2023-09-19T04:48:07;16.38;;;2.38;;
35444;SDS011;21562;49.476;6.086;2023-09-19T04:50:33;14.02;;;2.15;;
35444;SDS011;21562;49.476;6.086;2023-09-19T04:52:59;14.40;;;2.50;;
35444;SDS011;21562;49.476;6.086;2023-09-19T04:55:26;14.75;;;2.58;;
35444;SDS011;21562;49.476;6.086;2023-09-19T04:57:51;14.13;;;2.97;;
35444;SDS011;21562;49.476;6.086;2023-09-19T05:00:18;11.75;;;2.38;;
35444;SDS011;21562;49.476;6.086;2023-09-19T05:02:51;14.93;;;2.60;;
35444;SDS011;21562;49.476;6.086;2023-09-19T05:05:18;15.73;;;4.15;;
35444;SDS011;21562;49.476;6.086;2023-09-19T05:07:44;12.02;;;2.40;;
35444;SDS011;21562;49.476;6.086;2023-09-19T05:10:10;12.82;;;2.25;;
35444;SDS011;21562;49.476;6.086;2023-09-19T05:12:36;10.32;;;2.15;;
35444;SDS011;21562;49.476;6.086;2023-09-19T05:15:02;14.25;;;3.70;;
35444;SDS011;21562;49.476;6.086;2023-09-19T05:17:29;17.10;;;2.70;;
35444;SDS011;21562;49.476;6.086;2023-09-19T05:19:56;25.88;;;4.30;;
35444;SDS011;21562;49.476;6.086;2023-09-19T05:22:37;14.18;;;2.67;;
35444;SDS011;21562;49.476;6.086;2023-09-19T05:25:05;9.50;;;1.90;;
35444;SDS011;21562;49.476;6.086;2023-09-19T05:27:31;14.38;;;2.67;;
35444;SDS011;21562;49.476;6.086;2023-09-19T05:29:56;21.08;;;3.83;;
35444;SDS011;21562;49.476;6.086;2023-09-19T05:32:22;12.05;;;2.20;;
35444;SDS011;21562;49.476;6.086;2023-09-19T05:34:48;16.23;;;2.65;;
35444;SDS011;21562;49.476;6.086;2023-09-19T05:37:18;12.88;;;2.17;;
35444;SDS011;21562;49.476;6.086;2023-09-19T05:39:43;12.75;;;2.33;;
35444;SDS011;21562;49.476;6.086;2023-09-19T05:42:09;12.13;;;2.17;;
35444;SDS011;21562;49.476;6.086;2023-09-19T05:44:35;16.38;;;2.67;;
35444;SDS011;21562;49.476;6.086;2023-09-19T05:47:01;12.32;;;2.95;;
35444;SDS011;21562;49.476;6.086;2023-09-19T05:49:28;11.63;;;2.42;;
35444;SDS011;21562;49.476;6.086;2023-09-19T05:51:53;8.63;;;2.35;;
35444;SDS011;21562;49.476;6.086;2023-09-19T05:54:21;16.02;;;3.00;;
35444;SDS011;21562;49.476;6.086;2023-09-19T05:56:47;12.75;;;2.60;;
35444;SDS011;21562;49.476;6.086;2023-09-19T05:59:17;14.63;;;2.40;;
35444;SDS011;21562;49.476;6.086;2023-09-19T06:01:43;15.65;;;2.78;;
35444;SDS011;21562;49.476;6.086;2023-09-19T06:04:09;17.27;;;3.17;;
35444;SDS011;21562;49.476;6.086;2023-09-19T06:06:34;11.35;;;1.98;;
35444;SDS011;21562;49.476;6.086;2023-09-19T06:09:03;13.65;;;2.60;;
35444;SDS011;21562;49.476;6.086;2023-09-19T06:11:31;17.98;;;2.60;;
35444;SDS011;21562;49.476;6.086;2023-09-19T06:14:00;13.68;;;2.00;;
35444;SDS011;21562;49.476;6.086;2023-09-19T06:16:27;12.20;;;2.88;;
35444;SDS011;21562;49.476;6.086;2023-09-19T06:18:54;16.02;;;3.17;;
35444;SDS011;21562;49.476;6.086;2023-09-19T06:21:21;12.70;;;2.58;;
35444;SDS011;21562;49.476;6.086;2023-09-19T06:23:47;14.65;;;2.20;;
35444;SDS011;21562;49.476;6.086;2023-09-19T06:26:13;17.17;;;2.75;;
35444;SDS011;21562;49.476;6.086;2023-09-19T06:28:38;10.70;;;2.38;;
35444;SDS011;21562;49.476;6.086;2023-09-19T06:31:04;13.38;;;2.55;;
35444;SDS011;21562;49.476;6.086;2023-09-19T06:33:35;15.02;;;2.38;;
35444;SDS011;21562;49.476;6.086;2023-09-19T06:36:03;18.92;;;2.88;;
35444;SDS011;21562;49.476;6.086;2023-09-19T06:38:29;19.52;;;2.80;;
35444;SDS011;21562;49.476;6.086;2023-09-19T06:40:56;13.63;;;3.13;;
35444;SDS011;21562;49.476;6.086;2023-09-19T06:43:23;9.10;;;2.95;;
35444;SDS011;21562;49.476;6.086;2023-09-19T06:45:49;16.88;;;2.72;;
35444;SDS011;21562;49.476;6.086;2023-09-19T06:48:16;13.60;;;2.55;;
35444;SDS011;21562;49.476;6.086;2023-09-19T06:50:43;15.75;;;2.28;;
35444;SDS011;21562;49.476;6.086;2023-09-19T06:53:09;10.18;;;2.50;;
35444;SDS011;21562;49.476;6.086;2023-09-19T06:55:35;13.30;;;2.92;;
35444;SDS011;21562;49.476;6.086;2023-09-19T06:58:01;9.60;;;2.28;;
35444;SDS011;21562;49.476;6.086;2023-09-19T07:00:27;9.38;;;2.25;;
35444;SDS011;21562;49.476;6.086;2023-09-19T07:05:22;11.43;;;3.40;;
35444;SDS011;21562;49.476;6.086;2023-09-19T07:07:48;10.55;;;2.38;;
35444;SDS011;21562;49.476;6.086;2023-09-19T07:10:13;7.25;;;2.08;;
35444;SDS011;21562;49.476;6.086;2023-09-19T07:12:39;12.90;;;2.85;;
35444;SDS011;21562;49.476;6.086;2023-09-19T07:15:06;15.82;;;2.60;;
35444;SDS011;21562;49.476;6.086;2023-09-19T07:17:32;14.88;;;2.58;;
35444;SDS011;21562;49.476;6.086;2023-09-19T07:19:58;10.82;;;3.47;;
35444;SDS011;21562;49.476;6.086;2023-09-19T07:22:24;16.73;;;2.83;;
35444;SDS011;21562;49.476;6.086;2023-09-19T07:24:51;16.88;;;3.90;;
35444;SDS011;21562;49.476;6.086;2023-09-19T07:27:17;13.52;;;3.22;;
35444;SDS011;21562;49.476;6.086;2023-09-19T07:29:43;19.85;;;3.33;;
35444;SDS011;21562;49.476;6.086;2023-09-19T07:32:09;10.13;;;2.17;;
35444;SDS011;21562;49.476;6.086;2023-09-19T07:34:35;14.00;;;2.20;;
35444;SDS011;21562;49.476;6.086;2023-09-19T07:37:01;13.45;;;2.05;;
35444;SDS011;21562;49.476;6.086;2023-09-19T07:39:27;14.48;;;2.50;;
35444;SDS011;21562;49.476;6.086;2023-09-19T07:41:53;12.45;;;2.47;;
35444;SDS011;21562;49.476;6.086;2023-09-19T07:44:19;11.65;;;2.05;;
35444;SDS011;21562;49.476;6.086;2023-09-19T07:46:45;16.75;;;2.45;;
35444;SDS011;21562;49.476;6.086;2023-09-19T07:49:11;9.10;;;2.03;;
35444;SDS011;21562;49.476;6.086;2023-09-19T07:51:36;12.88;;;2.10;;
35444;SDS011;21562;49.476;6.086;2023-09-19T07:54:02;10.40;;;2.10;;
35444;SDS011;21562;49.476;6.086;2023-09-19T07:56:28;16.77;;;2.80;;
35444;SDS011;21562;49.476;6.086;2023-09-19T07:58:56;9.65;;;2.35;;
35444;SDS011;21562;49.476;6.086;2023-09-19T08:01:24;13.52;;;2.35;;
35444;SDS011;21562;49.476;6.086;2023-09-19T08:03:52;14.73;;;2.28;;
35444;SDS011;21562;49.476;6.086;2023-09-19T08:06:17;12.73;;;2.10;;
35444;SDS011;21562;49.476;6.086;2023-09-19T08:08:45;14.38;;;2.10;;
35444;SDS011;21562;49.476;6.086;2023-09-19T08:11:11;13.15;;;3.03;;
35444;SDS011;21562;49.476;6.086;2023-09-19T08:13:38;10.63;;;2.22;;
35444;SDS011;21562;49.476;6.086;2023-09-19T08:16:09;17.23;;;2.40;;
35444;SDS011;21562;49.476;6.086;2023-09-19T08:18:36;8.55;;;2.05;;
35444;SDS011;21562;49.476;6.086;2023-09-19T08:21:05;13.80;;;1.92;;
35444;SDS011;21562;49.476;6.086;2023-09-19T08:23:33;9.02;;;1.95;;
35444;SDS011;21562;49.476;6.086;2023-09-19T08:25:58;16.35;;;2.10;;
35444;SDS011;21562;49.476;6.086;2023-09-19T08:28:28;8.57;;;1.95;;
35444;SDS011;21562;49.476;6.086;2023-09-19T08:30:55;20.52;;;2.47;;
35444;SDS011;21562;49.476;6.086;2023-09-19T08:33:20;15.23;;;2.72;;
35444;SDS011;21562;49.476;6.086;2023-09-19T08:35:46;12.88;;;2.45;;
35444;SDS011;21562;49.476;6.086;2023-09-19T08:38:12;19.58;;;2.53;;
35444;SDS011;21562;49.476;6.086;2023-09-19T08:40:39;15.07;;;2.03;;
35444;SDS011;21562;49.476;6.086;2023-09-19T08:43:07;14.30;;;1.70;;
35444;SDS011;21562;49.476;6.086;2023-09-19T08:45:33;6.68;;;1.50;;
35444;SDS011;21562;49.476;6.086;2023-09-19T08:50:31;12.00;;;1.90;;
35444;SDS011;21562;49.476;6.086;2023-09-19T08:53:07;10.38;;;1.83;;
35444;SDS011;21562;49.476;6.086;2023-09-19T08:55:37;12.32;;;2.55;;
35444;SDS011;21562;49.476;6.086;2023-09-19T08:58:06;12.27;;;2.17;;
35444;SDS011;21562;49.476;6.086;2023-09-19T09:00:35;10.65;;;2.30;;
35444;SDS011;21562;49.476;6.086;2023-09-19T09:03:02;12.32;;;2.17;;
35444;SDS011;21562;49.476;6.086;2023-09-19T09:05:31;10.40;;;1.25;;
35444;SDS011;21562;49.476;6.086;2023-09-19T09:07:58;10.52;;;1.95;;
35444;SDS011;21562;49.476;6.086;2023-09-19T09:10:24;10.55;;;1.85;;
35444;SDS011;21562;49.476;6.086;2023-09-19T09:12:51;14.32;;;1.70;;
35444;SDS011;21562;49.476;6.086;2023-09-19T09:15:19;10.10;;;1.60;;
35444;SDS011;21562;49.476;6.086;2023-09-19T09:17:48;10.95;;;1.83;;
35444;SDS011;21562;49.476;6.086;2023-09-19T09:20:15;12.75;;;1.67;;
35444;SDS011;21562;49.476;6.086;2023-09-19T09:22:52;8.85;;;1.85;;
35444;SDS011;21562;49.476;6.086;2023-09-19T09:28:25;6.10;;;1.85;;
35444;SDS011;21562;49.476;6.086;2023-09-19T09:30:53;8.10;;;1.38;;
35444;SDS011;21562;49.476;6.086;2023-09-19T09:33:32;11.80;;;2.10;;
35444;SDS011;21562;49.476;6.086;2023-09-19T09:35:59;8.55;;;1.60;;
35444;SDS011;21562;49.476;6.086;2023-09-19T09:38:28;14.90;;;1.77;;
35444;SDS011;21562;49.476;6.086;2023-09-19T09:41:15;7.10;;;1.88;;
35444;SDS011;21562;49.476;6.086;2023-09-19T09:43:52;9.27;;;2.72;;
35444;SDS011;21562;49.476;6.086;2023-09-19T09:46:19;10.25;;;1.70;;
35444;SDS011;21562;49.476;6.086;2023-09-19T09:51:39;7.50;;;1.58;;
35444;SDS011;21562;49.476;6.086;2023-09-19T09:54:22;17.40;;;2.95;;
35444;SDS011;21562;49.476;6.086;2023-09-19T09:56:58;12.02;;;1.70;;
35444;SDS011;21562;49.476;6.086;2023-09-19T09:59:55;10.30;;;1.40;;
35444;SDS011;21562;49.476;6.086;2023-09-19T10:02:42;13.07;;;2.05;;
35444;SDS011;21562;49.476;6.086;2023-09-19T10:05:12;9.60;;;2.05;;
35444;SDS011;21562;49.476;6.086;2023-09-19T10:07:53;5.63;;;1.75;;
35444;SDS011;21562;49.476;6.086;2023-09-19T10:13:07;8.45;;;1.92;;
35444;SDS011;21562;49.476;6.086;2023-09-19T10:15:43;12.02;;;2.47;;
35444;SDS011;21562;49.476;6.086;2023-09-19T10:18:23;7.28;;;1.60;;
35444;SDS011;21562;49.476;6.086;2023-09-19T10:20:50;10.90;;;1.88;;
35444;SDS011;21562;49.476;6.086;2023-09-19T10:23:17;8.50;;;1.90;;
35444;SDS011;21562;49.476;6.086;2023-09-19T10:25:48;6.80;;;1.40;;
35444;SDS011;21562;49.476;6.086;2023-09-19T10:28:16;8.73;;;2.13;;
35444;SDS011;21562;49.476;6.086;2023-09-19T10:30:47;10.15;;;1.50;;
35444;SDS011;21562;49.476;6.086;2023-09-19T10:33:15;7.47;;;1.60;;
35444;SDS011;21562;49.476;6.086;2023-09-19T10:35:47;5.93;;;1.30;;
35444;SDS011;21562;49.476;6.086;2023-09-19T10:38:14;16.65;;;2.55;;
35444;SDS011;21562;49.476;6.086;2023-09-19T10:40:50;13.82;;;1.88;;
35444;SDS011;21562;49.476;6.086;2023-09-19T10:43:17;9.07;;;2.00;;
35444;SDS011;21562;49.476;6.086;2023-09-19T10:45:46;7.95;;;2.00;;
35444;SDS011;21562;49.476;6.086;2023-09-19T10:48:14;5.93;;;1.40;;
35444;SDS011;21562;49.476;6.086;2023-09-19T10:53:29;17.80;;;1.88;;
35444;SDS011;21562;49.476;6.086;2023-09-19T10:59:06;10.00;;;1.80;;
35444;SDS011;21562;49.476;6.086;2023-09-19T11:01:44;6.07;;;1.48;;
35444;SDS011;21562;49.476;6.086;2023-09-19T11:26:47;7.35;;;1.40;;
35444;SDS011;21562;49.476;6.086;2023-09-19T11:29:29;7.22;;;1.60;;
35444;SDS011;21562;49.476;6.086;2023-09-19T11:31:59;8.57;;;1.65;;
35444;SDS011;21562;49.476;6.086;2023-09-19T11:34:46;8.48;;;1.42;;
35444;SDS011;21562;49.476;6.086;2023-09-19T11:39:39;8.18;;;1.20;;
35444;SDS011;21562;49.476;6.086;2023-09-19T11:48:22;3.78;;;1.23;;
35444;SDS011;21562;49.476;6.086;2023-09-19T11:50:50;8.23;;;1.88;;
35444;SDS011;21562;49.476;6.086;2023-09-19T11:53:16;5.50;;;1.10;;
35444;SDS011;21562;49.476;6.086;2023-09-19T11:55:42;4.72;;;1.23;;
35444;SDS011;21562;49.476;6.086;2023-09-19T11:58:09;5.75;;;1.50;;
35444;SDS011;21562;49.476;6.086;2023-09-19T12:00:37;6.90;;;1.58;;
35444;SDS011;21562;49.476;6.086;2023-09-19T12:03:09;3.45;;;1.40;;
35444;SDS011;21562;49.476;6.086;2023-09-19T12:05:39;7.07;;;1.45;;
35444;SDS011;21562;49.476;6.086;2023-09-19T12:08:05;3.03;;;1.20;;
35444;SDS011;21562;49.476;6.086;2023-09-19T12:10:44;7.32;;;1.40;;
35444;SDS011;21562;49.476;6.086;2023-09-19T12:13:17;7.78;;;1.40;;
35444;SDS011;21562;49.476;6.086;2023-09-19T12:15:43;8.75;;;1.30;;
35444;SDS011;21562;49.476;6.086;2023-09-19T12:18:28;7.03;;;1.48;;
35444;SDS011;21562;49.476;6.086;2023-09-19T12:20:54;5.35;;;1.45;;
35444;SDS011;21562;49.476;6.086;2023-09-19T12:23:20;4.60;;;1.13;;
35444;SDS011;21562;49.476;6.086;2023-09-19T12:25:46;5.20;;;1.23;;
35444;SDS011;21562;49.476;6.086;2023-09-19T12:28:12;6.35;;;1.20;;
35444;SDS011;21562;49.476;6.086;2023-09-19T12:30:41;6.28;;;1.38;;
35444;SDS011;21562;49.476;6.086;2023-09-19T12:33:16;7.68;;;1.38;;
35444;SDS011;21562;49.476;6.086;2023-09-19T12:35:50;6.57;;;1.08;;
35444;SDS011;21562;49.476;6.086;2023-09-19T12:38:27;5.43;;;0.82;;
35444;SDS011;21562;49.476;6.086;2023-09-19T12:40:54;6.88;;;1.52;;
35444;SDS011;21562;49.476;6.086;2023-09-19T12:43:28;11.70;;;1.45;;
35444;SDS011;21562;49.476;6.086;2023-09-19T12:45:57;6.00;;;1.35;;
35444;SDS011;21562;49.476;6.086;2023-09-19T12:48:24;6.97;;;1.08;;
35444;SDS011;21562;49.476;6.086;2023-09-19T12:51:08;5.60;;;1.02;;
35444;SDS011;21562;49.476;6.086;2023-09-19T12:53:45;5.53;;;1.38;;
35444;SDS011;21562;49.476;6.086;2023-09-19T12:56:14;5.57;;;0.88;;
35444;SDS011;21562;49.476;6.086;2023-09-19T12:58:51;8.07;;;1.35;;
35444;SDS011;21562;49.476;6.086;2023-09-19T13:01:18;9.63;;;1.13;;
35444;SDS011;21562;49.476;6.086;2023-09-19T13:03:45;4.13;;;0.93;;
35444;SDS011;21562;49.476;6.086;2023-09-19T13:06:11;5.30;;;1.20;;
35444;SDS011;21562;49.476;6.086;2023-09-19T13:08:38;4.60;;;1.50;;
35444;SDS011;21562;49.476;6.086;2023-09-19T13:11:13;3.55;;;1.10;;
35444;SDS011;21562;49.476;6.086;2023-09-19T13:13:46;4.07;;;1.10;;
35444;SDS011;21562;49.476;6.086;2023-09-19T13:16:18;3.38;;;0.95;;
35444;SDS011;21562;49.476;6.086;2023-09-19T13:18:50;4.05;;;1.20;;
35444;SDS011;21562;49.476;6.086;2023-09-19T13:21:34;6.55;;;1.10;;
35444;SDS011;21562;49.476;6.086;2023-09-19T13:24:23;5.97;;;1.13;;
35444;SDS011;21562;49.476;6.086;2023-09-19T13:26:54;4.25;;;1.33;;
35444;SDS011;21562;49.476;6.086;2023-09-19T13:29:21;5.35;;;1.02;;
35444;SDS011;21562;49.476;6.086;2023-09-19T13:31:50;11.32;;;1.92;;
35444;SDS011;21562;49.476;6.086;2023-09-19T13:34:20;3.03;;;1.10;;
35444;SDS011;21562;49.476;6.086;2023-09-19T13:36:46;4.10;;;1.52;;
35444;SDS011;21562;49.476;6.086;2023-09-19T13:39:15;2.95;;;0.88;;
35444;SDS011;21562;49.476;6.086;2023-09-19T13:41:41;7.20;;;1.10;;
35444;SDS011;21562;49.476;6.086;2023-09-19T13:44:09;4.03;;;0.93;;
35444;SDS011;21562;49.476;6.086;2023-09-19T13:46:35;5.32;;;1.10;;
35444;SDS011;21562;49.476;6.086;2023-09-19T13:49:02;4.43;;;0.80;;
35444;SDS011;21562;49.476;6.086;2023-09-19T13:51:28;3.50;;;1.00;;
35444;SDS011;21562;49.476;6.086;2023-09-19T13:53:55;4.22;;;1.20;;
35444;SDS011;21562;49.476;6.086;2023-09-19T13:56:21;3.85;;;1.02;;
35444;SDS011;21562;49.476;6.086;2023-09-19T13:58:46;3.55;;;1.05;;
35444;SDS011;21562;49.476;6.086;2023-09-19T14:01:12;4.13;;;0.90;;
35444;SDS011;21562;49.476;6.086;2023-09-19T14:03:41;6.30;;;0.95;;
35444;SDS011;21562;49.476;6.086;2023-09-19T14:06:12;4.57;;;1.38;;
35444;SDS011;21562;49.476;6.086;2023-09-19T14:08:38;4.13;;;1.02;;
35444;SDS011;21562;49.476;6.086;2023-09-19T14:11:07;5.22;;;1.23;;
35444;SDS011;21562;49.476;6.086;2023-09-19T14:13:33;4.20;;;0.85;;
35444;SDS011;21562;49.476;6.086;2023-09-19T14:16:03;4.07;;;1.25;;
35444;SDS011;21562;49.476;6.086;2023-09-19T14:18:30;3.53;;;1.05;;
35444;SDS011;21562;49.476;6.086;2023-09-19T14:20:56;5.28;;;1.20;;
35444;SDS011;21562;49.476;6.086;2023-09-19T14:23:22;5.43;;;1.00;;
35444;SDS011;21562;49.476;6.086;2023-09-19T14:25:48;4.20;;;1.08;;
35444;SDS011;21562;49.476;6.086;2023-09-19T14:28:15;4.60;;;1.10;;
35444;SDS011;21562;49.476;6.086;2023-09-19T14:30:40;3.17;;;1.13;;
35444;SDS011;21562;49.476;6.086;2023-09-19T14:33:06;5.13;;;1.20;;
35444;SDS011;21562;49.476;6.086;2023-09-19T14:35:32;7.43;;;1.10;;
35444;SDS011;21562;49.476;6.086;2023-09-19T14:37:58;2.13;;;0.60;;
35444;SDS011;21562;49.476;6.086;2023-09-19T14:40:23;2.80;;;1.00;;
35444;SDS011;21562;49.476;6.086;2023-09-19T14:42:50;3.25;;;0.82;;
35444;SDS011;21562;49.476;6.086;2023-09-19T14:45:16;2.40;;;0.80;;
35444;SDS011;21562;49.476;6.086;2023-09-19T14:47:43;2.88;;;0.77;;
35444;SDS011;21562;49.476;6.086;2023-09-19T14:50:11;4.20;;;1.70;;
35444;SDS011;21562;49.476;6.086;2023-09-19T14:52:37;1.67;;;0.93;;
35444;SDS011;21562;49.476;6.086;2023-09-19T14:55:04;5.10;;;1.27;;
35444;SDS011;21562;49.476;6.086;2023-09-19T14:57:31;4.18;;;1.15;;
35444;SDS011;21562;49.476;6.086;2023-09-19T14:59:57;4.95;;;0.93;;
35444;SDS011;21562;49.476;6.086;2023-09-19T15:02:23;2.35;;;1.10;;
35444;SDS011;21562;49.476;6.086;2023-09-19T15:04:49;6.15;;;0.95;;
35444;SDS011;21562;49.476;6.086;2023-09-19T15:07:16;4.93;;;1.15;;
35444;SDS011;21562;49.476;6.086;2023-09-19T15:09:42;5.40;;;1.60;;
35444;SDS011;21562;49.476;6.086;2023-09-19T15:12:08;2.72;;;1.00;;
35444;SDS011;21562;49.476;6.086;2023-09-19T15:14:35;1.90;;;0.85;;
35444;SDS011;21562;49.476;6.086;2023-09-19T15:17:00;5.10;;;1.20;;
35444;SDS011;21562;49.476;6.086;2023-09-19T15:19:29;3.63;;;0.88;;
35444;SDS011;21562;49.476;6.086;2023-09-19T15:21:55;4.55;;;1.30;;
35444;SDS011;21562;49.476;6.086;2023-09-19T15:24:22;3.65;;;1.10;;
35444;SDS011;21562;49.476;6.086;2023-09-19T15:26:49;4.88;;;1.13;;
35444;SDS011;21562;49.476;6.086;2023-09-19T15:29:16;3.85;;;1.38;;
35444;SDS011;21562;49.476;6.086;2023-09-19T15:31:41;5.22;;;1.00;;
35444;SDS011;21562;49.476;6.086;2023-09-19T15:34:07;6.10;;;1.15;;
35444;SDS011;21562;49.476;6.086;2023-09-19T15:36:32;3.28;;;1.13;;
35444;SDS011;21562;49.476;6.086;2023-09-19T15:39:05;7.43;;;1.20;;
35444;SDS011;21562;49.476;6.086;2023-09-19T15:41:34;4.28;;;1.33;;
35444;SDS011;21562;49.476;6.086;2023-09-19T15:44:02;5.72;;;1.35;;
35444;SDS011;21562;49.476;6.086;2023-09-19T15:46:29;3.78;;;1.23;;
35444;SDS011;21562;49.476;6.086;2023-09-19T15:48:56;10.35;;;1.50;;
35444;SDS011;21562;49.476;6.086;2023-09-19T15:51:22;4.82;;;1.35;;
35444;SDS011;21562;49.476;6.086;2023-09-19T15:53:49;4.50;;;1.10;;
35444;SDS011;21562;49.476;6.086;2023-09-19T15:56:16;6.97;;;1.63;;
35444;SDS011;21562;49.476;6.086;2023-09-19T15:58:45;5.57;;;1.67;;
35444;SDS011;21562;49.476;6.086;2023-09-19T16:01:12;4.45;;;1.38;;